createdAt,value
2018-07-31T00:00:30.958Z,100124.20
2018-07-31T00:02:59.874Z,100129.97
2018-07-31T00:05:28.784Z,100134.69
2018-07-31T00:07:57.710Z,100125.07
2018-07-31T00:10:26.669Z,100128.00
2018-07-31T00:12:55.588Z,100127.76
2018-07-31T00:15:24.545Z,100124.13
2018-07-31T00:17:53.596Z,100125.22
2018-07-31T00:20:22.533Z,100140.03
2018-07-31T00:22:51.497Z,100128.20
2018-07-31T00:25:20.411Z,100133.10
2018-07-31T00:27:49.356Z,100135.11
2018-07-31T00:30:18.296Z,100132.92
2018-07-31T00:32:47.225Z,100133.61
2018-07-31T00:35:16.195Z,100130.35
2018-07-31T00:37:45.133Z,100126.99
2018-07-31T00:40:14.060Z,100127.09
2018-07-31T00:42:42.945Z,100118.78
2018-07-31T00:45:11.852Z,100118.32
2018-07-31T00:47:40.810Z,100118.32
2018-07-31T00:50:09.723Z,100114.17
2018-07-31T00:52:38.641Z,100121.92
2018-07-31T00:55:07.874Z,100116.73
2018-07-31T00:57:36.787Z,100116.89
2018-07-31T01:00:05.949Z,100121.28
2018-07-31T01:02:34.900Z,100115.80
2018-07-31T01:05:03.928Z,100116.94
2018-07-31T01:07:32.858Z,100124.84
2018-07-31T01:10:01.767Z,100121.87
2018-07-31T01:12:30.794Z,100127.45
2018-07-31T01:14:59.805Z,100115.86
2018-07-31T01:17:28.733Z,100126.24
2018-07-31T01:19:57.669Z,100121.98
2018-07-31T01:22:26.600Z,100116.20
2018-07-31T01:24:55.588Z,100119.21
2018-07-31T01:27:24.550Z,100115.80
2018-07-31T01:29:53.471Z,100121.81
2018-07-31T01:32:22.430Z,100117.16
2018-07-31T01:34:51.350Z,100110.98
2018-07-31T01:37:20.308Z,100116.33
2018-07-31T01:39:49.239Z,100105.02
2018-07-31T01:42:18.185Z,100100.42
2018-07-31T01:44:47.203Z,100107.07
2018-07-31T01:47:16.173Z,100103.59
2018-07-31T01:49:45.130Z,100097.48
2018-07-31T01:52:14.114Z,100100.97
2018-07-31T01:54:43.536Z,100103.12
2018-07-31T01:57:12.608Z,100107.55
2018-07-31T01:59:43.563Z,100103.17
2018-07-31T02:02:12.477Z,100104.90
2018-07-31T02:04:41.429Z,100098.58
2018-07-31T02:07:10.327Z,100100.33
2018-07-31T02:09:39.261Z,100101.27
2018-07-31T02:12:08.195Z,100098.11
2018-07-31T02:14:37.115Z,100102.53
2018-07-31T02:17:06.322Z,100096.62
2018-07-31T02:19:36.374Z,100097.99
2018-07-31T02:22:05.434Z,100100.66
2018-07-31T02:24:34.388Z,100106.83
2018-07-31T02:27:03.312Z,100106.59
2018-07-31T02:29:37.624Z,100109.48
2018-07-31T02:32:06.552Z,100104.95
2018-07-31T02:34:35.490Z,100102.69
2018-07-31T02:37:04.415Z,100104.00
2018-07-31T02:39:33.329Z,100107.83
2018-07-31T02:42:02.281Z,100101.63
2018-07-31T02:44:31.252Z,100101.39
2018-07-31T02:47:00.300Z,100097.83
2018-07-31T02:49:29.124Z,100101.23
2018-07-31T02:51:58.064Z,100107.88
2018-07-31T02:54:26.996Z,100105.30
2018-07-31T02:56:55.962Z,100115.21
2018-07-31T02:59:24.960Z,100110.05
2018-07-31T03:01:53.937Z,100110.25
2018-07-31T03:04:22.915Z,100119.48
2018-07-31T03:06:51.944Z,100116.32
2018-07-31T03:09:20.882Z,100112.38
2018-07-31T03:11:49.804Z,100116.77
2018-07-31T03:14:18.727Z,100115.70
2018-07-31T03:16:47.664Z,100110.39
2018-07-31T03:19:16.620Z,100114.05
2018-07-31T03:21:45.567Z,100111.61
2018-07-31T03:24:14.482Z,100118.94
2018-07-31T03:26:43.604Z,100113.62
2018-07-31T03:29:12.570Z,100109.97
2018-07-31T03:31:41.485Z,100112.41
2018-07-31T03:34:10.480Z,100112.96
2018-07-31T03:36:39.420Z,100113.92
2018-07-31T03:39:09.005Z,100109.94
2018-07-31T03:41:38.018Z,100116.22
2018-07-31T03:44:06.999Z,100119.94
2018-07-31T03:46:35.936Z,100112.92
2018-07-31T03:49:04.847Z,100115.31
2018-07-31T03:51:33.784Z,100117.45
2018-07-31T03:54:02.706Z,100112.72
2018-07-31T03:56:31.651Z,100115.84
2018-07-31T03:59:00.690Z,100111.53
2018-07-31T04:01:29.677Z,100112.76
2018-07-31T04:03:58.635Z,100116.48
2018-07-31T04:06:27.552Z,100112.32
2018-07-31T04:08:56.474Z,100113.05
2018-07-31T04:11:25.432Z,100117.84
2018-07-31T04:13:54.349Z,100117.73
2018-07-31T04:16:23.291Z,100116.66
2018-07-31T04:18:52.224Z,100117.88
2018-07-31T04:21:21.177Z,100115.63
2018-07-31T04:23:50.179Z,100121.23
2018-07-31T04:26:19.088Z,100114.63
2018-07-31T04:28:49.082Z,100109.88
2018-07-31T04:31:18.130Z,100115.03
2018-07-31T04:33:47.139Z,100110.78
2018-07-31T04:36:16.195Z,100101.42
2018-07-31T04:38:45.481Z,100104.13
2018-07-31T04:41:14.544Z,100107.02
2018-07-31T04:43:43.589Z,100113.77
2018-07-31T04:46:12.508Z,100108.78
2018-07-31T04:48:41.497Z,100108.91
2018-07-31T04:51:10.427Z,100117.45
2018-07-31T04:53:39.340Z,100111.60
2018-07-31T04:56:08.233Z,100115.46
2018-07-31T04:58:37.144Z,100113.00
2018-07-31T05:01:06.300Z,100117.70
2018-07-31T05:03:35.209Z,100119.86
2018-07-31T05:06:04.112Z,100114.00
2018-07-31T05:08:33.025Z,100113.72
2018-07-31T05:11:02.158Z,100112.12
2018-07-31T05:13:31.028Z,100110.42
2018-07-31T05:16:00.007Z,100111.22
2018-07-31T05:18:28.962Z,100108.35
2018-07-31T05:20:57.897Z,100111.73
2018-07-31T05:23:26.825Z,100115.36
2018-07-31T05:25:55.759Z,100113.86
2018-07-31T05:28:24.679Z,100112.33
2018-07-31T05:30:53.680Z,100121.61
2018-07-31T05:33:22.676Z,100122.33
2018-07-31T05:35:51.680Z,100124.48
2018-07-31T05:38:20.681Z,100125.53
2018-07-31T05:40:49.940Z,100121.38
2018-07-31T05:43:18.861Z,100127.35
2018-07-31T05:45:47.832Z,100121.49
2018-07-31T05:48:16.822Z,100125.61
2018-07-31T05:50:45.948Z,100124.11
2018-07-31T05:53:14.974Z,100122.58
2018-07-31T05:55:43.965Z,100125.11
2018-07-31T05:58:12.909Z,100115.99
2018-07-31T06:00:41.844Z,100120.14
2018-07-31T06:03:10.806Z,100121.89
2018-07-31T06:05:39.733Z,100107.64
2018-07-31T06:08:09.019Z,100104.73
2018-07-31T06:10:37.961Z,100103.91
2018-07-31T06:13:06.892Z,100099.73
2018-07-31T06:15:35.860Z,100102.31
2018-07-31T06:18:04.820Z,100101.12
2018-07-31T06:20:33.727Z,100099.28
2018-07-31T06:23:02.708Z,100098.39
2018-07-31T06:25:31.771Z,100103.27
2018-07-31T06:28:00.691Z,100101.53
2018-07-31T06:30:29.598Z,100101.09
2018-07-31T06:32:58.756Z,100089.68
2018-07-31T06:35:27.646Z,100098.72
2018-07-31T06:37:56.705Z,100095.45
2018-07-31T06:40:25.665Z,100094.04
2018-07-31T06:42:54.690Z,100093.66
2018-07-31T06:45:23.700Z,100091.91
2018-07-31T06:47:52.665Z,100095.86
2018-07-31T06:50:21.591Z,100091.53
2018-07-31T06:52:50.567Z,100093.36
2018-07-31T06:55:19.478Z,100093.66
2018-07-31T06:57:48.512Z,100089.94
2018-07-31T07:00:17.579Z,100091.99
2018-07-31T07:02:46.580Z,100095.30
2018-07-31T07:05:15.558Z,100089.98
2018-07-31T07:07:44.583Z,100087.53
2018-07-31T07:10:13.564Z,100089.35
2018-07-31T07:12:42.472Z,100082.91
2018-07-31T07:15:11.435Z,100086.08
2018-07-31T07:17:40.799Z,100087.88
2018-07-31T07:20:09.996Z,100087.63
2018-07-31T07:22:40.680Z,100086.87
2018-07-31T07:25:09.568Z,100094.02
2018-07-31T07:27:38.484Z,100087.13
2018-07-31T07:30:07.487Z,100092.20
2018-07-31T07:32:36.419Z,100089.62
2018-07-31T07:35:05.376Z,100080.55
2018-07-31T07:37:34.316Z,100087.87
2018-07-31T07:40:03.258Z,100080.58
2018-07-31T07:42:32.179Z,100081.08
2018-07-31T07:45:01.480Z,100083.76
2018-07-31T07:47:30.727Z,100088.96
2018-07-31T07:50:00.103Z,100091.16
2018-07-31T07:52:29.385Z,100087.66
2018-07-31T07:54:58.707Z,100085.52
2018-07-31T07:57:27.621Z,100089.27
2018-07-31T07:59:56.590Z,100072.55
2018-07-31T08:02:25.486Z,100072.08
2018-07-31T08:04:54.404Z,100070.54
2018-07-31T08:07:23.316Z,100081.16
2018-07-31T08:09:52.429Z,100082.47
2018-07-31T08:12:22.320Z,100082.13
2018-07-31T08:14:51.294Z,100077.28
2018-07-31T08:17:20.185Z,100075.21
2018-07-31T08:19:49.178Z,100077.02
2018-07-31T08:22:18.096Z,100069.31
2018-07-31T08:24:47.027Z,100071.84
2018-07-31T08:27:15.948Z,100073.78
2018-07-31T08:29:44.865Z,100076.62
2018-07-31T08:32:13.871Z,100073.51
2018-07-31T08:34:42.827Z,100076.64
2018-07-31T08:37:11.796Z,100076.48
2018-07-31T08:39:40.714Z,100071.34
2018-07-31T08:42:09.631Z,100068.91
2018-07-31T08:44:38.631Z,100076.55
2018-07-31T08:47:07.550Z,100076.62
2018-07-31T08:49:36.493Z,100074.95
2018-07-31T08:52:05.444Z,100079.98
2018-07-31T08:54:34.388Z,100084.02
2018-07-31T08:57:03.322Z,100078.70
2018-07-31T08:59:32.251Z,100074.55
2018-07-31T09:02:01.224Z,100065.60
2018-07-31T09:04:30.253Z,100074.52
2018-07-31T09:06:59.244Z,100071.58
2018-07-31T09:09:28.150Z,100069.13
2018-07-31T09:11:57.079Z,100072.98
2018-07-31T09:14:26.021Z,100069.38
2018-07-31T09:16:54.945Z,100071.16
2018-07-31T09:19:23.867Z,100068.52
2018-07-31T09:21:52.775Z,100060.57
2018-07-31T09:24:21.701Z,100055.58
2018-07-31T09:26:50.583Z,100057.71
2018-07-31T09:29:19.481Z,100052.09
2018-07-31T09:31:48.432Z,100057.70
2018-07-31T09:34:17.335Z,100043.11
2018-07-31T09:36:46.278Z,100054.98
2018-07-31T09:39:15.182Z,100055.81
2018-07-31T09:41:44.088Z,100054.70
2018-07-31T09:44:13.044Z,100051.48
2018-07-31T09:46:41.991Z,100045.88
2018-07-31T09:49:10.892Z,100053.13
2018-07-31T09:51:39.803Z,100044.03
2018-07-31T09:54:08.747Z,100042.69
2018-07-31T09:56:37.663Z,100043.63
2018-07-31T09:59:06.624Z,100042.19
2018-07-31T10:01:35.492Z,100043.28
2018-07-31T10:04:04.406Z,100039.20
2018-07-31T10:06:33.328Z,100039.50
2018-07-31T10:09:02.367Z,100036.39
2018-07-31T10:11:31.725Z,100031.49
2018-07-31T10:14:00.756Z,100020.02
2018-07-31T10:16:29.707Z,100021.44
2018-07-31T10:18:58.762Z,100021.88
2018-07-31T10:21:27.800Z,100015.05
2018-07-31T10:23:56.936Z,100012.38
2018-07-31T10:26:26.107Z,100007.61
2018-07-31T10:28:55.318Z,100015.65
2018-07-31T10:31:24.661Z,100021.02
2018-07-31T10:33:53.644Z,100018.31
2018-07-31T10:36:22.636Z,100014.70
2018-07-31T10:38:51.560Z,100014.84
2018-07-31T10:41:20.455Z,100006.63
2018-07-31T10:43:49.404Z,100009.34
2018-07-31T10:46:18.283Z,100003.45
2018-07-31T10:48:47.327Z,100006.39
2018-07-31T10:51:18.833Z,100004.05
2018-07-31T10:53:47.744Z,100006.36
2018-07-31T10:56:16.848Z,100003.45
2018-07-31T10:58:45.830Z,100005.97
2018-07-31T11:01:14.918Z,100002.36
2018-07-31T11:03:43.908Z,100000.20
2018-07-31T11:06:12.931Z,99990.64
2018-07-31T11:08:41.939Z,99997.94
2018-07-31T11:11:11.179Z,99998.90
2018-07-31T11:13:40.064Z,99992.53
2018-07-31T11:16:09.064Z,99997.20
2018-07-31T11:18:37.971Z,99988.55
2018-07-31T11:21:06.977Z,99988.36
2018-07-31T11:23:35.795Z,99988.42
2018-07-31T11:26:04.715Z,99974.94
2018-07-31T11:28:33.622Z,99974.81
2018-07-31T11:31:02.524Z,99968.64
2018-07-31T11:33:31.444Z,99970.97
2018-07-31T11:36:00.402Z,99975.63
2018-07-31T11:38:29.373Z,99976.34
2018-07-31T11:40:58.533Z,99978.24
2018-07-31T11:43:27.483Z,99980.38
2018-07-31T11:45:56.386Z,99967.23
2018-07-31T11:48:25.341Z,99968.39
2018-07-31T11:50:54.279Z,99970.55
2018-07-31T11:53:23.196Z,99960.10
2018-07-31T11:55:52.180Z,99968.50
2018-07-31T11:58:21.092Z,99962.16
2018-07-31T12:00:50.930Z,99960.77
2018-07-31T12:03:19.925Z,99955.57
2018-07-31T12:05:48.834Z,99963.64
2018-07-31T12:08:17.699Z,99960.20
2018-07-31T12:10:46.728Z,99964.80
2018-07-31T12:13:15.612Z,99963.52
2018-07-31T12:15:44.556Z,99965.34
2018-07-31T12:18:13.468Z,99961.39
2018-07-31T12:20:42.394Z,99962.72
2018-07-31T12:23:11.303Z,99969.35
2018-07-31T12:25:40.212Z,99965.25
2018-07-31T12:28:09.154Z,99958.17
2018-07-31T12:30:38.126Z,99958.50
2018-07-31T12:33:07.645Z,99959.48
2018-07-31T12:35:36.523Z,99960.00
2018-07-31T12:38:05.622Z,99962.95
2018-07-31T12:40:34.545Z,99957.31
2018-07-31T12:43:03.822Z,99956.22
2018-07-31T12:45:32.720Z,99965.97
2018-07-31T12:48:01.736Z,99965.83
2018-07-31T12:50:30.685Z,99958.84
2018-07-31T12:52:59.594Z,99953.75
2018-07-31T12:55:28.511Z,99958.28
2018-07-31T12:57:57.455Z,99953.92
2018-07-31T13:00:26.391Z,99950.27
2018-07-31T13:02:55.328Z,99944.16
2018-07-31T13:05:24.267Z,99942.75
2018-07-31T13:07:53.201Z,99938.34
2018-07-31T13:10:22.211Z,99946.22
2018-07-31T13:12:51.154Z,99937.74
2018-07-31T13:15:20.105Z,99925.27
2018-07-31T13:17:49.052Z,99928.15
2018-07-31T13:20:17.958Z,99927.63
2018-07-31T13:22:46.940Z,99926.67
2018-07-31T13:25:15.847Z,99927.65
2018-07-31T13:27:44.890Z,99937.97
2018-07-31T13:30:13.871Z,99924.47
2018-07-31T13:32:42.789Z,99923.42
2018-07-31T13:35:11.760Z,99924.35
2018-07-31T13:37:41.182Z,99922.52
2018-07-31T13:40:10.088Z,99917.73
2018-07-31T13:42:39.205Z,99918.53
2018-07-31T13:45:08.076Z,99919.00
2018-07-31T13:47:37.089Z,99904.34
2018-07-31T13:50:06.013Z,99910.53
2018-07-31T13:52:34.932Z,99903.61
2018-07-31T13:55:03.844Z,99904.77
2018-07-31T13:57:32.732Z,99916.00
2018-07-31T14:00:01.656Z,99906.43
2018-07-31T14:02:30.795Z,99908.19
2018-07-31T14:04:59.725Z,99910.69
2018-07-31T14:07:28.670Z,99913.09
2018-07-31T14:09:57.982Z,99916.81
2018-07-31T14:12:26.955Z,99917.58
2018-07-31T14:14:55.840Z,99908.87
2018-07-31T14:17:24.821Z,99915.20
2018-07-31T14:19:53.748Z,99911.72
2018-07-31T14:22:22.653Z,99908.85
2018-07-31T14:24:51.608Z,99911.13
2018-07-31T14:27:20.552Z,99919.94
2018-07-31T14:29:49.486Z,99923.44
2018-07-31T14:32:18.426Z,99916.93
2018-07-31T14:34:47.345Z,99910.47
2018-07-31T14:37:16.256Z,99917.06
2018-07-31T20:05:09.715Z,100017.45
2018-07-31T20:07:39.316Z,100027.17
2018-07-31T20:10:08.302Z,100019.73
2018-07-31T20:12:37.314Z,100027.47
2018-07-31T20:15:06.477Z,100028.02
2018-07-31T20:17:35.351Z,100033.09
2018-07-31T20:20:04.338Z,100028.44
2018-07-31T20:22:33.344Z,100033.75
2018-07-31T20:25:02.272Z,100037.45
2018-07-31T20:27:31.192Z,100040.30
2018-07-31T20:30:00.136Z,100039.53
2018-07-31T20:32:29.123Z,100039.75
2018-07-31T20:34:58.156Z,100043.07
2018-07-31T20:37:27.137Z,100038.05
2018-07-31T20:39:56.187Z,100042.51
2018-07-31T20:42:25.166Z,100045.12
2018-07-31T20:44:54.103Z,100043.20
2018-07-31T20:47:23.005Z,100053.22
2018-07-31T20:49:51.932Z,100052.07
2018-07-31T20:52:20.911Z,100050.28
2018-07-31T20:54:49.990Z,100059.95
2018-07-31T20:57:18.926Z,100062.31
2018-07-31T20:59:48.118Z,100060.94
2018-07-31T21:02:16.976Z,100074.31
2018-07-31T21:04:46.003Z,100081.41
2018-07-31T21:07:14.991Z,100081.23
2018-07-31T21:09:43.939Z,100080.05
2018-07-31T21:12:12.868Z,100075.32
2018-07-31T21:14:41.821Z,100080.64
2018-07-31T21:17:10.736Z,100080.84
2018-07-31T21:19:39.664Z,100077.52
2018-07-31T21:22:08.577Z,100083.80
2018-07-31T21:24:37.479Z,100078.45
2018-07-31T21:27:06.406Z,100077.30
2018-07-31T21:29:35.500Z,100079.62
2018-07-31T21:32:04.471Z,100083.38
2018-07-31T21:34:33.604Z,100080.42
2018-07-31T21:37:02.540Z,100077.66
2018-07-31T21:39:31.508Z,100085.15
2018-07-31T21:42:00.472Z,100093.98
2018-07-31T21:44:29.456Z,100096.55
2018-07-31T21:46:58.432Z,100098.30
2018-07-31T21:49:28.147Z,100098.11
2018-07-31T21:51:57.081Z,100097.31
2018-07-31T21:54:26.002Z,100101.45
2018-07-31T21:56:54.964Z,100097.50
2018-07-31T21:59:24.011Z,100103.80
2018-07-31T22:01:52.987Z,100110.09
2018-07-31T22:04:22.157Z,100106.52
2018-07-31T22:06:51.077Z,100107.28
2018-07-31T22:09:24.223Z,100109.64
2018-07-31T22:11:53.213Z,100112.97
2018-07-31T22:14:22.148Z,100111.33
2018-07-31T22:16:51.064Z,100110.89
2018-07-31T22:19:20.011Z,100122.48
2018-07-31T22:21:49.058Z,100116.55
2018-07-31T22:24:17.983Z,100125.17
2018-07-31T22:26:46.928Z,100126.36
2018-07-31T22:29:15.862Z,100126.36
2018-07-31T22:31:44.806Z,100124.83
2018-07-31T22:34:13.846Z,100131.35
2018-07-31T22:36:42.808Z,100127.80
2018-07-31T22:39:12.435Z,100130.33
2018-07-31T22:41:41.649Z,100137.54
2018-07-31T22:44:10.647Z,100137.54
2018-07-31T22:46:39.692Z,100136.51
2018-07-31T22:49:08.685Z,100137.25
2018-07-31T22:51:37.602Z,100135.05
2018-07-31T22:54:06.539Z,100135.02
2018-07-31T22:56:35.464Z,100142.22
2018-07-31T22:59:04.430Z,100139.83
2018-07-31T23:01:33.975Z,100144.70
2018-07-31T23:04:02.904Z,100147.03
2018-07-31T23:06:31.822Z,100148.36
2018-07-31T23:09:00.775Z,100145.02
2018-07-31T23:11:29.699Z,100146.75
2018-07-31T23:13:58.686Z,100137.31
2018-07-31T23:16:27.568Z,100146.94
2018-07-31T23:18:56.564Z,100142.03
2018-07-31T23:21:25.512Z,100138.70
2018-07-31T23:23:54.434Z,100135.21
2018-07-31T23:26:23.368Z,100138.33
2018-07-31T23:28:52.318Z,100134.63
2018-07-31T23:31:21.410Z,100138.75
2018-07-31T23:33:50.354Z,100134.22
2018-07-31T23:36:19.362Z,100133.11
2018-07-31T23:38:48.317Z,100134.30
2018-07-31T23:41:17.278Z,100135.86
2018-07-31T23:43:46.252Z,100137.42
2018-07-31T23:46:15.228Z,100137.59
2018-07-31T23:48:44.628Z,100144.23
2018-07-31T23:51:13.624Z,100143.41
2018-07-31T23:53:42.579Z,100143.40
2018-07-31T23:56:11.520Z,100144.69
2018-07-31T23:58:40.465Z,100145.62
